KSAT/SAT METAR and TAF weather

Enter ICAO airport designator
Station Type Date Time Source
KSAT METAR 2019/02/23 16:51 UTC NOAA

KSAT 231651Z 31017G24KT 10SM FEW150 BKN250 19/00 A2997 RMK AO2 PK WND 31026/1627 SLP136 T01940000


Station Type Date Time Source
KSAT Decoded METAR 2019/02/23 16:51 UTC NOAA

SAN ANTONIO INTERNATIONAL AIRPORT , TX, United States (KSAT) 29-32N 098-28W 243M
Feb 23, 2019 - 11:51 AM EST / 2019.02.23 1651 UTC
Wind: from the NW (310 degrees) at 20 MPH (17 KT) gusting to 28 MPH (24 KT):0
Visibility: 10 mile(s):0
Sky conditions: mostly cloudy
Temperature: 66.9 F (19.4 C)
Dew Point: 32.0 F (0.0 C)
Relative Humidity: 27%
Pressure (altimeter): 29.97 in. Hg (1014 hPa)
ob: KSAT 231651Z 31017G24KT 10SM FEW150 BKN250 19/00 A2997 RMK AO2 PK WND 31026/1627 SLP136 T01940000
cycle: 17

Station Type Date Time Source
KSAT TAF 2019/02/23 18:27 UTC NOAA

TAF KSAT 231725Z 2318/2424 30015G25KT P6SM BKN250
FM232300 28013KT P6SM BKN250
FM240100 32006KT P6SM SCT250
FM241200 02010KT P6SM FEW250


Example: see airport list